Terminal Aerodrome Forecast
Issued by NWS Wilmington, NC

Home | Current Version | Previous Version | Text Only | Print | Product List | Glossary On
Versions: 1 2 3 4 5 6 7 8 9 10 11 12 13 14 15 16 17 18 19 20 21
201
FTUS42 KILM 292320
TAFMYR
TAF
KMYR 292320Z 3000/3024 20009KT P6SM SKC
     FM300300 19006KT P6SM SKC
      TEMPO 3003/3006 P6SM TS BKN050CB
     FM300600 20004KT P6SM SCT250
      TEMPO 3006/3009 P6SM TS BKN050CB
     FM300900 25007KT P6SM BKN250
      TEMPO 3009/3012 P6SM -TSRA BKN050CB
      AMD LTD TO CLD VIS AND WIND TIL 301000=

USA.gov is the U.S. government's official web portal to all federal, state and local government web resources and services.